createdAt,value
2022-10-25T00:02:25.120Z,14.36
2022-10-25T00:12:31.470Z,14.37
2022-10-25T00:22:37.818Z,14.22
2022-10-25T00:32:44.273Z,14.10
2022-10-25T00:42:50.669Z,14.04
2022-10-25T00:52:59.190Z,13.91
2022-10-25T01:03:06.109Z,13.78
2022-10-25T01:13:12.421Z,13.61
2022-10-25T01:23:43.457Z,13.51
2022-10-25T01:34:07.543Z,13.52
2022-10-25T01:44:24.155Z,13.33
2022-10-25T01:54:30.510Z,13.32
2022-10-25T02:05:12.265Z,13.22
2022-10-25T02:15:31.528Z,13.25
2022-10-25T02:25:39.214Z,13.15
2022-10-25T02:35:45.496Z,13.07
2022-10-25T02:45:51.743Z,12.84
2022-10-25T02:56:09.663Z,12.85
2022-10-25T03:06:16.077Z,12.88
2022-10-25T03:16:22.375Z,12.87
2022-10-25T03:26:28.662Z,12.81
2022-10-25T03:36:34.915Z,12.77
2022-10-25T03:46:41.165Z,12.84
2022-10-25T03:56:47.471Z,12.91
2022-10-25T04:06:53.759Z,13.06
2022-10-25T04:17:00.116Z,13.15
2022-10-25T04:27:06.380Z,13.34
2022-10-25T04:37:12.725Z,13.45
2022-10-25T04:47:19.010Z,13.57
2022-10-25T04:57:26.187Z,13.54
2022-10-25T05:07:32.477Z,13.61
2022-10-25T05:17:38.734Z,13.60
2022-10-25T05:27:44.995Z,13.61
2022-10-25T05:37:51.294Z,13.61
2022-10-25T05:47:57.562Z,13.61
2022-10-25T05:58:04.804Z,13.57
2022-10-25T06:08:11.080Z,13.66
2022-10-25T06:18:17.344Z,13.75
2022-10-25T06:28:23.599Z,14.08
2022-10-25T06:38:30.581Z,14.48
2022-10-25T06:48:36.830Z,14.50
2022-10-25T06:58:43.499Z,14.52
2022-10-25T07:08:49.088Z,14.57
2022-10-25T07:18:59.715Z,14.52
2022-10-25T07:29:06.073Z,14.56
2022-10-25T07:39:12.409Z,14.55
2022-10-25T07:49:18.785Z,14.64
2022-10-25T07:59:25.115Z,14.42
2022-10-25T08:09:38.222Z,14.17
2022-10-25T08:19:50.171Z,13.89
2022-10-25T08:29:57.431Z,13.85
2022-10-25T08:40:03.689Z,13.90
2022-10-25T08:50:25.600Z,14.02
2022-10-25T09:00:38.415Z,14.40
2022-10-25T09:11:04.074Z,14.79
2022-10-25T09:21:27.448Z,14.61
2022-10-25T09:31:39.484Z,14.90
2022-10-25T09:41:51.627Z,16.04
2022-10-25T09:52:13.166Z,16.69
2022-10-25T10:02:24.651Z,18.04
2022-10-25T10:12:36.844Z,18.05
2022-10-25T10:32:58.172Z,16.95
2022-10-25T10:43:23.837Z,16.84
2022-10-25T10:53:31.062Z,17.48
2022-10-25T11:03:59.752Z,17.61
2022-10-25T11:14:17.690Z,17.92
2022-10-25T11:24:54.436Z,18.80
2022-10-25T11:35:22.372Z,19.35
2022-10-25T12:06:10.758Z,17.32
2022-10-25T12:16:19.740Z,17.13
2022-10-25T12:36:53.010Z,16.76
2022-10-25T12:47:18.530Z,16.65
2022-10-25T12:57:47.581Z,16.60
2022-10-25T13:07:58.466Z,16.39
2022-10-25T13:18:07.157Z,16.31
2022-10-25T13:28:16.449Z,16.29
2022-10-25T13:38:23.274Z,16.11
2022-10-25T13:48:31.704Z,15.96
2022-10-25T13:58:48.568Z,15.62
2022-10-25T14:08:59.823Z,15.70
2022-10-25T14:19:17.626Z,16.03
2022-10-25T14:29:26.259Z,15.92
2022-10-25T14:39:33.041Z,15.96
2022-10-25T14:49:39.307Z,15.34
2022-10-25T15:00:05.477Z,15.19
2022-10-25T15:10:36.873Z,14.73
2022-10-25T15:20:42.120Z,14.71
2022-10-25T15:30:51.410Z,14.78
2022-10-25T15:40:57.719Z,14.63
2022-10-25T15:51:03.968Z,14.47
2022-10-25T16:01:10.568Z,14.39
2022-10-25T16:11:20.082Z,14.13
2022-10-25T16:21:28.237Z,13.90
2022-10-25T16:31:34.499Z,13.77
2022-10-25T16:41:45.415Z,13.58
2022-10-25T16:51:53.462Z,13.32
2022-10-25T17:02:00.170Z,12.94
2022-10-25T17:12:06.783Z,12.90
2022-10-25T17:22:13.075Z,12.84
2022-10-25T17:32:19.351Z,12.67
2022-10-25T17:42:25.830Z,12.87
2022-10-25T17:52:32.120Z,12.79
2022-10-25T18:02:38.389Z,12.61
2022-10-25T18:12:44.690Z,12.54
2022-10-25T18:22:51.008Z,12.15
2022-10-25T18:32:58.075Z,12.26
2022-10-25T18:43:04.367Z,12.51
2022-10-25T18:53:10.618Z,12.69
2022-10-25T19:03:17.371Z,12.71
2022-10-25T19:13:23.734Z,12.63
2022-10-25T19:23:30.179Z,12.45
2022-10-25T19:33:36.565Z,12.30
2022-10-25T19:43:42.866Z,12.17
2022-10-25T19:53:49.950Z,12.03
2022-10-25T20:03:58.602Z,11.60
2022-10-25T20:14:05.013Z,11.47
2022-10-25T20:24:11.461Z,11.26
2022-10-25T20:34:18.332Z,11.50
2022-10-25T20:44:24.646Z,11.71
2022-10-25T20:54:30.922Z,11.77
2022-10-25T21:04:42.784Z,11.56
2022-10-25T21:14:59.501Z,11.59
2022-10-25T21:25:06.092Z,11.66
2022-10-25T21:35:12.340Z,11.83
2022-10-25T21:45:18.668Z,11.93
2022-10-25T21:55:24.990Z,11.83
2022-10-25T22:05:31.268Z,11.59
2022-10-25T22:15:37.508Z,11.36
2022-10-25T22:25:43.797Z,10.99
2022-10-25T22:35:50.073Z,10.59
2022-10-25T22:45:56.540Z,10.47
2022-10-25T22:56:10.662Z,10.77
2022-10-25T23:06:19.206Z,10.59
2022-10-25T23:16:27.795Z,10.09
2022-10-25T23:26:35.564Z,9.86
2022-10-25T23:36:41.840Z,9.63
2022-10-25T23:46:48.122Z,9.23
2022-10-25T23:56:54.846Z,9.41
